UTSB

Bukhara Airport

Bukhara, Uzbekistan
TAF UTSB 181100Z 1812/1912 VRB03KT 7000 NSC TX39/1911Z TEMPO 1812/1823 29012KT FEW033
Issued Valid From Valid To
Jun-18 @ 11:00 UTC
(2 hours ago)
Jun-18 @ 12:00 UTC
(an hour ago)
Jun-19 @ 12:00 UTC
(in 23 hours)
Jun-18 @ 12:00 to Jun-19 @ 12:00
TAF UTSB 181100Z 1812/1912 VRB03KT 7000 NSC TX39/1911Z
Wind Visibility Clouds
Variable at 3 knots 7,001 meters
  • No significant clouds
Temporary Jun-18 @ 12:00 to Jun-18 @ 23:00
TEMPO 1812/1823 29012KT FEW033
Wind Clouds
290° at 12 knots
  • Few at 3,300' AGL
TAF UTSB 181100Z 1812/1912 VRB03KT 7000 NSC TX39/1911Z TEMPO 1812/1823 29012KT FEW033
Issued Jun-18 @ 11:00 UTC
(2 hours ago)
Valid From Jun-18 @ 12:00 UTC
(an hour ago)
Valid To Jun-19 @ 12:00 UTC
(in 23 hours)
Jun-18 @ 12:00 - Jun-19 @ 12:00
Wind Visibility
Variable at 3 knots 7,001 meters
Clouds
  • No significant clouds
Temporary Jun-18 @ 12:00 - Jun-18 @ 23:00
Wind
290° at 12 knots
Clouds
  • Few at 3,300' AGL